Time;durP1;ratioP1;P1;durP2;ratioP2;P2;SDS_P1;SDS_P2;PMS_P1;PMS_P2;Temp;Humidity;BMP_temperature;BMP_pressure;BME280_temperature;BME280_humidity;BME280_pressure;Samples;Min_cycle;Max_cycle;Signal;HPM_P1;HPM_P2
2022/01/30 00:04:01;;;;;;;8.10;5.15;;;3.70;99.90;;;;;;5036472;28;20039;-85
2022/01/30 00:10:14;;;;;;;11.60;6.28;;;3.60;99.90;;;;;;5039079;28;20179;-85
2022/01/30 00:13:26;;;;;;;;;;;;;;;;;;;;;
2022/01/30 00:16:06;;;;;;;10.32;5.75;;;3.60;99.90;;;;;;5060591;28;20625;-85
2022/01/30 00:21:51;;;;;;;9.73;6.13;;;3.50;99.90;;;;;;5066369;28;20044;-83
2022/01/30 00:25:32;;;;;;;8.77;6.00;;;3.50;99.90;;;;;;5085064;28;20044;-84
2022/01/30 00:28:40;;;;;;;9.32;5.63;;;3.50;99.90;;;;;;5028357;28;20072;-84
2022/01/30 00:38:37;;;;;;;;;;;;;;;;;;;;;
2022/01/30 00:52:20;;;;;;;;;;;;;;;;;;;;;
2022/01/30 01:02:53;;;;;;;7.40;4.85;;;3.30;99.90;;;;;;4832928;29;20875;-82
2022/01/30 01:05:41;;;;;;;7.50;4.35;;;3.30;99.90;;;;;;4721865;30;20402;-83
2022/01/30 01:29:24;;;;;;;;;;;;;;;;;;;;;
2022/01/30 01:33:04;;;;;;;9.85;4.68;;;3.40;99.90;;;;;;4995275;28;20637;-82
2022/01/30 01:43:02;;;;;;;4.55;3.00;;;3.20;99.90;;;;;;4980769;28;20060;-83
2022/01/30 01:46:35;;;;;;;7.55;3.88;;;3.20;99.90;;;;;;4926692;28;20081;-83
2022/01/30 01:49:02;;;;;;;6.63;3.47;;;3.20;99.90;;;;;;5005158;28;20624;-83
2022/01/30 01:52:18;;;;;;;5.38;3.13;;;3.20;99.90;;;;;;4999362;28;20544;-82
2022/01/30 01:58:53;;;;;;;5.20;3.63;;;3.20;99.90;;;;;;5084592;28;20551;-83
2022/01/30 02:02:28;;;;;;;5.50;2.97;;;3.20;99.90;;;;;;5044089;28;20087;-83
2022/01/30 02:08:59;;;;;;;6.60;3.05;;;3.20;99.90;;;;;;5007180;28;20029;-84
2022/01/30 02:12:00;;;;;;;5.43;3.40;;;3.30;99.90;;;;;;5002723;28;20092;-84
2022/01/30 02:25:11;;;;;;;;;;;;;;;;;;;;;
2022/01/30 02:27:46;;;;;;;5.97;2.47;;;3.90;99.90;;;;;;5010809;28;20026;-85
2022/01/30 02:30:30;;;;;;;4.55;2.75;;;3.90;99.90;;;;;;5010998;28;20033;-85
2022/01/30 02:33:03;;;;;;;5.95;2.53;;;4.00;99.90;;;;;;5060162;28;20029;-85
2022/01/30 02:36:13;;;;;;;;;;;4.10;99.90;;;;;;5058880;28;20156;-85
2022/01/30 02:56:22;;;;;;;5.18;2.17;;;5.00;99.90;;;;;;4980890;28;20022;-85
2022/01/30 03:26:26;;;;;;;6.53;3.30;;;4.80;99.90;;;;;;4906846;28;20051;-83
2022/01/30 03:32:16;;;;;;;6.38;3.25;;;4.30;99.90;;;;;;4940851;28;20069;-84
2022/01/30 03:34:56;;;;;;;7.13;2.95;;;4.10;99.90;;;;;;5051805;28;20051;-82
2022/01/30 03:38:04;;;;;;;4.45;2.88;;;3.90;99.90;;;;;;5058293;28;20025;-83
2022/01/30 03:41:17;;;;;;;8.50;3.22;;;3.80;99.90;;;;;;5035678;28;20055;-83
2022/01/30 03:47:56;;;;;;;4.30;2.72;;;3.60;99.90;;;;;;5008685;28;20076;-84
2022/01/30 03:51:32;;;;;;;6.32;2.75;;;3.50;99.90;;;;;;5007514;28;20037;-83
2022/01/30 03:54:49;;;;;;;5.10;2.85;;;3.50;99.90;;;;;;4906319;29;20052;-84
2022/01/30 04:32:50;;;;;;;3.10;2.20;;;3.30;99.90;;;;;;4980821;28;20056;-84
2022/01/30 05:10:48;;;;;;;7.15;3.20;;;3.20;99.90;;;;;;4896184;29;20135;-83
2022/01/30 05:14:05;;;;;;;7.18;2.90;;;3.20;99.90;;;;;;4895851;29;20058;-83
2022/01/30 05:20:32;;;;;;;;;;;;;;;;;;;;;
2022/01/30 05:23:17;;;;;;;4.93;3.38;;;3.20;99.90;;;;;;4926217;29;20046;-83
2022/01/30 05:26:25;;;;;;;5.75;3.20;;;3.20;99.90;;;;;;4924414;29;20051;-83
2022/01/30 05:29:20;;;;;;;;;;;;;;;;;;;;;
2022/01/30 05:42:42;;;;;;;9.02;3.20;;;3.00;99.90;;;;;;5025473;28;20048;-83
2022/01/30 05:46:15;;;;;;;5.95;3.50;;;2.90;99.90;;;;;;5021052;28;20034;-83
2022/01/30 05:49:06;;;;;;;7.75;3.70;;;3.00;99.90;;;;;;4951006;28;20618;-83
2022/01/30 05:55:49;;;;;;;;;;;;;;;;;;;;;
2022/01/30 06:02:42;;;;;;;7.60;3.90;;;2.80;99.90;;;;;;4998827;28;20030;-83
2022/01/30 06:23:28;;;;;;;;;;;;;;;;;;;;;
2022/01/30 06:26:56;;;;;;;;;;;;;;;;;;;;;
2022/01/30 06:29:42;;;;;;;5.47;3.33;;;2.80;99.90;;;;;;4935011;29;20065;-84
2022/01/30 06:33:09;;;;;;;5.60;3.47;;;2.80;99.90;;;;;;4950919;28;20066;-83
2022/01/30 06:36:33;;;;;;;6.95;3.58;;;2.80;99.90;;;;;;5004718;28;20033;-83
2022/01/30 06:49:45;;;;;;;6.13;3.97;;;2.80;99.90;;;;;;4891450;29;20067;-83
2022/01/30 06:52:16;;;;;;;6.53;3.47;;;2.90;99.90;;;;;;4891167;29;20308;-83
2022/01/30 06:55:30;;;;;;;8.20;3.67;;;3.00;99.90;;;;;;5003959;28;20045;-83
2022/01/30 06:58:19;;;;;;;8.00;4.00;;;3.10;99.90;;;;;;4994419;28;20064;-83
2022/01/30 07:00:45;;;;;;;7.15;3.75;;;3.10;99.90;;;;;;5013173;28;20041;-83
2022/01/30 07:03:51;;;;;;;5.85;3.60;;;3.30;99.90;;;;;;5061071;28;20029;-83
2022/01/30 07:07:03;;;;;;;;;;;;;;;;;;;;;
2022/01/30 07:09:46;;;;;;;8.07;5.13;;;3.40;99.90;;;;;;5071193;28;20070;-89
2022/01/30 07:12:24;;;;;;;12.60;5.13;;;3.50;99.90;;;;;;5049421;28;20044;-90
2022/01/30 07:18:24;;;;;;;6.22;3.85;;;3.70;99.90;;;;;;4999637;28;20133;-85
2022/01/30 07:21:03;;;;;;;9.68;4.15;;;3.80;99.90;;;;;;5010361;28;20055;-85
2022/01/30 07:27:02;;;;;;;6.95;3.83;;;4.00;99.90;;;;;;5063121;28;20037;-85
2022/01/30 07:29:42;;;;;;;5.93;3.50;;;4.10;99.90;;;;;;5058342;28;20131;-84
2022/01/30 07:32:25;;;;;;;6.45;3.28;;;4.10;99.90;;;;;;5054130;28;20494;-85
2022/01/30 07:34:54;;;;;;;6.22;3.35;;;4.20;99.90;;;;;;5065521;28;20402;-85
2022/01/30 07:38:05;;;;;;;;;;;;;;;;;;;;;
2022/01/30 07:40:33;;;;;;;6.13;3.28;;;4.40;99.90;;;;;;5065675;28;20475;-87
2022/01/30 07:43:31;;;;;;;5.60;3.40;;;4.50;99.90;;;;;;5068769;28;20066;-85
2022/01/30 07:49:38;;;;;;;10.95;3.78;;;4.70;99.90;;;;;;5058793;28;20048;-85
2022/01/30 07:52:21;;;;;;;5.68;3.67;;;4.80;99.90;;;;;;5058749;28;20036;-84
2022/01/30 07:54:50;;;;;;;7.50;3.75;;;4.80;99.90;;;;;;5063588;28;20538;-86
2022/01/30 07:57:30;;;;;;;5.97;3.75;;;4.90;99.90;;;;;;5064440;28;20035;-88
2022/01/30 08:00:09;;;;;;;7.63;3.95;;;5.00;99.90;;;;;;5064958;28;20048;-91
2022/01/30 08:02:47;;;;;;;11.30;4.03;;;5.10;99.90;;;;;;5067224;28;20036;-89
2022/01/30 08:05:16;;;;;;;8.98;4.05;;;5.20;99.90;;;;;;5083840;28;20035;-85
2022/01/30 08:07:42;;;;;;;7.90;3.70;;;5.30;99.90;;;;;;5072309;28;20605;-90
2022/01/30 08:10:13;;;;;;;6.47;4.28;;;5.40;99.90;;;;;;5070161;28;20139;-90
2022/01/30 08:12:39;;;;;;;5.23;3.97;;;5.50;99.90;;;;;;5070293;28;20118;-91
2022/01/30 08:15:12;;;;;;;6.38;4.18;;;5.60;99.90;;;;;;5069822;28;20025;-92
2022/01/30 08:18:16;;;;;;;11.15;4.88;;;5.70;99.90;;;;;;5071897;28;20478;-91
2022/01/30 08:20:51;;;;;;;7.47;4.80;;;5.90;99.90;;;;;;5066185;28;20055;-89
2022/01/30 08:23:28;;;;;;;;;;;;;;;;;;;;;
2022/01/30 08:26:34;;;;;;;13.23;4.68;;;6.10;99.90;;;;;;5065966;28;20031;-91
2022/01/30 08:29:59;;;;;;;9.07;4.68;;;6.20;99.90;;;;;;5078442;28;20036;-93
2022/01/30 08:32:33;;;;;;;8.13;4.80;;;6.30;99.90;;;;;;5005457;28;20050;-93
2022/01/30 08:35:07;;;;;;;8.20;4.70;;;6.40;99.90;;;;;;4972457;28;20026;-93
2022/01/30 08:37:36;;;;;;;6.20;4.35;;;6.60;99.90;;;;;;5021681;28;20048;-90
2022/01/30 08:40:16;;;;;;;6.20;4.20;;;6.70;99.90;;;;;;5057089;28;20036;-89
2022/01/30 08:42:43;;;;;;;7.65;4.40;;;6.70;99.90;;;;;;5051931;28;20031;-88
2022/01/30 08:45:13;;;;;;;6.10;3.95;;;6.90;99.90;;;;;;5048144;28;20032;-87
2022/01/30 08:47:43;;;;;;;8.02;4.70;;;7.00;99.90;;;;;;5045295;28;20025;-86
2022/01/30 08:50:17;;;;;;;7.00;4.35;;;7.10;99.90;;;;;;5048022;28;20028;-89
2022/01/30 08:53:09;;;;;;;8.70;4.53;;;7.20;99.90;;;;;;5049431;28;20085;-89
2022/01/30 08:55:53;;;;;;;8.32;4.70;;;7.20;99.90;;;;;;5053243;28;20036;-91
2022/01/30 08:58:18;;;;;;;9.38;5.13;;;7.40;99.90;;;;;;5054982;28;20111;-88
2022/01/30 09:00:58;;;;;;;12.38;5.68;;;7.40;99.90;;;;;;5046729;28;20566;-89
2022/01/30 09:04:09;;;;;;;10.02;5.43;;;7.60;99.90;;;;;;5052683;28;20024;-89
2022/01/30 09:07:16;;;;;;;9.38;5.30;;;7.60;99.90;;;;;;5064103;28;20062;-89
2022/01/30 09:09:48;;;;;;;17.00;5.35;;;7.80;99.90;;;;;;5020397;28;20040;-90
2022/01/30 09:12:22;;;;;;;14.43;6.32;;;8.00;99.90;;;;;;5054132;28;20174;-92
2022/01/30 09:14:54;;;;;;;13.35;6.07;;;8.10;99.90;;;;;;5070623;28;20040;-89
2022/01/30 09:17:26;;;;;;;12.43;6.35;;;8.20;99.90;;;;;;5055397;28;20090;-85
2022/01/30 09:20:15;;;;;;;9.90;6.07;;;8.30;99.90;;;;;;5052557;28;20037;-90
2022/01/30 09:22:48;;;;;;;11.38;5.97;;;8.40;99.90;;;;;;5048232;28;20136;-87
2022/01/30 09:25:15;;;;;;;17.35;6.95;;;8.50;99.90;;;;;;5065291;28;20483;-93
2022/01/30 09:27:41;;;;;;;10.10;6.25;;;8.60;99.90;;;;;;5051672;28;20028;-86
2022/01/30 09:30:36;;;;;;;11.95;6.28;;;8.70;99.90;;;;;;5052008;28;20033;-89
2022/01/30 09:33:02;;;;;;;12.77;6.57;;;8.80;99.90;;;;;;5044517;28;20049;-91
2022/01/30 09:35:28;;;;;;;11.25;6.40;;;8.90;99.90;;;;;;5073470;28;20025;-89
2022/01/30 09:37:59;;;;;;;11.55;6.00;;;9.00;99.90;;;;;;5059812;28;20395;-91
2022/01/30 09:40:25;;;;;;;8.98;6.32;;;9.10;99.90;;;;;;5074529;28;20502;-90
2022/01/30 09:42:52;;;;;;;11.80;6.78;;;9.20;99.90;;;;;;5077116;28;20110;-91
2022/01/30 09:45:51;;;;;;;10.88;6.65;;;9.30;99.90;;;;;;5066667;28;20899;-91
2022/01/30 09:48:23;;;;;;;13.57;6.95;;;9.40;99.90;;;;;;5091706;28;20054;-92
2022/01/30 09:50:51;;;;;;;11.55;6.63;;;9.50;99.90;;;;;;5063003;28;20491;-90
2022/01/30 09:53:20;;;;;;;12.30;7.15;;;9.60;99.90;;;;;;5067573;28;20032;-91
2022/01/30 09:55:46;;;;;;;13.30;7.40;;;9.70;99.90;;;;;;5067100;28;20025;-85
2022/01/30 09:58:13;;;;;;;12.82;7.18;;;9.80;99.90;;;;;;5066627;28;20119;-87
2022/01/30 10:00:38;;;;;;;12.82;7.28;;;9.90;99.90;;;;;;5060592;28;20021;-88
2022/01/30 10:03:08;;;;;;;13.63;8.48;;;10.00;99.90;;;;;;5072742;28;20024;-87
2022/01/30 10:05:40;;;;;;;19.38;8.00;;;10.00;99.90;;;;;;5071926;28;20028;-96
2022/01/30 10:08:08;;;;;;;21.08;9.25;;;10.10;99.90;;;;;;5063884;28;20024;-85
2022/01/30 10:11:00;;;;;;;12.38;7.30;;;10.10;99.90;;;;;;5066250;28;20119;-95
2022/01/30 10:13:39;;;;;;;19.00;12.17;;;10.10;99.90;;;;;;5067198;28;20059;-89
2022/01/30 10:16:06;;;;;;;16.98;9.45;;;10.20;99.90;;;;;;5062468;28;20028;-91
2022/01/30 10:18:41;;;;;;;18.50;10.20;;;10.30;99.90;;;;;;5075832;28;20068;-93
2022/01/30 10:21:33;;;;;;;16.67;10.85;;;10.30;99.90;;;;;;5057384;28;20025;-92
2022/01/30 10:24:19;;;;;;;18.75;10.90;;;10.50;99.90;;;;;;5060670;28;20025;-89
2022/01/30 10:26:50;;;;;;;18.25;10.68;;;10.60;99.90;;;;;;5069066;28;20028;-90
2022/01/30 10:30:06;;;;;;;19.30;11.15;;;10.60;99.90;;;;;;5086696;28;20052;-96
2022/01/30 10:32:38;;;;;;;19.15;11.93;;;10.70;99.90;;;;;;5066283;28;20032;-95
2022/01/30 10:35:28;;;;;;;22.73;13.60;;;10.90;99.90;;;;;;5074159;28;20025;-96
2022/01/30 10:41:56;;;;;;;23.83;13.43;;;11.20;99.90;;;;;;5063589;28;20036;-95
2022/01/30 10:44:59;;;;;;;25.10;14.38;;;11.30;99.90;;;;;;5059665;28;20033;-94
2022/01/30 10:47:30;;;;;;;;;;;11.40;99.90;;;;;;5067011;28;20025;-93
2022/01/30 10:49:57;;;;;;;20.73;13.43;;;11.50;99.90;;;;;;5075255;28;19911;-92
2022/01/30 10:52:23;;;;;;;20.70;12.48;;;11.40;99.90;;;;;;5076576;28;20126;-92
2022/01/30 10:55:05;;;;;;;25.67;14.43;;;11.50;99.90;;;;;;5075633;28;20709;-94
2022/01/30 10:57:40;;;;;;;29.83;14.68;;;11.50;99.90;;;;;;5076484;28;20051;-94
2022/01/30 11:00:08;;;;;;;21.55;13.90;;;11.30;99.90;;;;;;5067061;28;21532;-92
2022/01/30 11:02:41;;;;;;;30.73;13.75;;;11.30;99.90;;;;;;5066314;28;20048;-93
2022/01/30 11:05:23;;;;;;;27.40;15.93;;;11.40;99.90;;;;;;5077960;28;20016;-86
2022/01/30 11:07:50;;;;;;;24.75;15.98;;;11.40;99.90;;;;;;5065982;28;20502;-84
2022/01/30 11:10:24;;;;;;;28.63;17.00;;;11.40;99.90;;;;;;5065022;28;20097;-90
2022/01/30 11:13:09;;;;;;;27.63;13.70;;;11.40;99.90;;;;;;5079403;28;20039;-92
2022/01/30 11:15:44;;;;;;;21.63;13.85;;;11.30;99.90;;;;;;5078451;28;20020;-92
2022/01/30 11:18:12;;;;;;;23.63;14.15;;;11.20;99.90;;;;;;5079985;28;20068;-91
2022/01/30 11:20:38;;;;;;;26.50;17.00;;;11.00;99.90;;;;;;5077749;28;20093;-92
2022/01/30 11:23:06;;;;;;;24.35;14.48;;;10.80;99.90;;;;;;5078163;28;20033;-93
2022/01/30 11:25:38;;;;;;;25.98;14.77;;;10.80;99.90;;;;;;5067961;28;20047;-92
2022/01/30 11:28:12;;;;;;;28.30;14.70;;;10.90;99.90;;;;;;5070680;28;20025;-92
2022/01/30 11:30:43;;;;;;;34.67;15.60;;;10.90;99.90;;;;;;5063594;28;20033;-92
2022/01/30 11:33:10;;;;;;;35.90;15.52;;;10.80;99.90;;;;;;5063361;28;20062;-92
2022/01/30 11:35:36;;;;;;;25.00;15.45;;;10.70;99.90;;;;;;5071721;28;20028;-91
2022/01/30 11:38:04;;;;;;;29.75;16.48;;;10.70;99.90;;;;;;5049780;28;20078;-92
2022/01/30 11:40:33;;;;;;;24.33;14.55;;;10.80;99.90;;;;;;5055557;28;20025;-88
2022/01/30 11:43:16;;;;;;;34.40;16.30;;;10.80;99.90;;;;;;5074423;28;20059;-87
2022/01/30 11:45:59;;;;;;;33.58;15.45;;;10.60;99.90;;;;;;5059132;28;20028;-86
2022/01/30 11:48:35;;;;;;;22.27;14.60;;;10.60;99.90;;;;;;5075145;28;20028;-92
2022/01/30 11:51:08;;;;;;;24.05;14.55;;;10.60;99.90;;;;;;5054867;28;20045;-92
2022/01/30 11:53:33;;;;;;;;;;;10.70;99.90;;;;;;5058922;28;20453;-92
2022/01/30 11:56:04;;;;;;;25.15;14.15;;;10.70;99.90;;;;;;5044959;28;19908;-92
2022/01/30 11:58:38;;;;;;;28.95;15.40;;;10.50;99.90;;;;;;5056065;28;20020;-91
2022/01/30 12:01:35;;;;;;;24.83;15.45;;;10.50;99.90;;;;;;5076238;28;20017;-94
2022/01/30 12:05:00;;;;;;;28.50;16.63;;;10.60;99.90;;;;;;5068763;28;20482;-93
2022/01/30 12:07:36;;;;;;;26.42;15.63;;;10.60;99.90;;;;;;5061939;28;20043;-94
2022/01/30 12:10:22;;;;;;;26.42;17.13;;;10.80;99.90;;;;;;5079659;28;20112;-91
2022/01/30 12:13:12;;;;;;;29.35;16.77;;;10.70;99.90;;;;;;5073459;28;20032;-86
2022/01/30 12:15:45;;;;;;;25.60;15.75;;;10.70;99.90;;;;;;5053659;28;20031;-90
2022/01/30 12:18:35;;;;;;;29.48;17.33;;;10.80;99.90;;;;;;5060620;28;20059;-90
2022/01/30 12:21:18;;;;;;;22.70;16.75;;;10.70;99.90;;;;;;5022412;28;20060;-91
2022/01/30 12:23:50;;;;;;;26.95;16.17;;;10.80;99.90;;;;;;5051681;28;20036;-91
2022/01/30 12:26:22;;;;;;;24.65;16.77;;;10.70;99.90;;;;;;5047768;28;20044;-89
2022/01/30 12:29:02;;;;;;;34.63;16.88;;;10.70;99.90;;;;;;5053960;28;20483;-92
2022/01/30 12:31:34;;;;;;;30.48;18.05;;;10.50;99.90;;;;;;5054541;28;20075;-91
2022/01/30 12:34:05;;;;;;;25.75;17.02;;;10.70;99.90;;;;;;5072701;28;20101;-93
2022/01/30 12:36:40;;;;;;;33.97;17.03;;;11.20;99.90;;;;;;5075547;28;20111;-90
2022/01/30 12:39:26;;;;;;;27.92;17.52;;;12.20;99.90;;;;;;5060664;28;20270;-89
2022/01/30 12:42:20;;;;;;;25.48;15.68;;;14.60;99.90;;;;;;5064501;28;20029;-93
2022/01/30 12:45:03;;;;;;;26.58;17.02;;;16.20;99.90;;;;;;5071476;28;20024;-94
2022/01/30 12:48:36;;;;;;;26.52;15.68;;;17.40;99.70;;;;;;5084699;28;20024;-91
2022/01/30 12:51:26;;;;;;;30.33;16.55;;;17.80;97.70;;;;;;4977923;28;20056;-94
2022/01/30 12:53:58;;;;;;;29.55;16.08;;;18.30;95.90;;;;;;5076668;28;20032;-95
2022/01/30 12:57:08;;;;;;;24.90;15.75;;;18.10;94.80;;;;;;5077269;28;20559;-91
2022/01/30 12:59:37;;;;;;;28.75;15.18;;;17.50;95.30;;;;;;5088496;28;20020;-89
2022/01/30 13:02:15;;;;;;;27.92;15.52;;;17.50;94.90;;;;;;5068740;28;20028;-89
2022/01/30 13:05:07;;;;;;;23.98;15.38;;;17.20;96.00;;;;;;5061830;28;20116;-92
2022/01/30 13:08:10;;;;;;;;;;;;;;;;;;;;;
2022/01/30 13:10:45;;;;;;;26.73;16.67;;;16.60;97.50;;;;;;5095367;28;20111;-91
2022/01/30 13:13:20;;;;;;;26.02;15.65;;;17.20;95.20;;;;;;5077653;28;20101;-92
2022/01/30 13:15:56;;;;;;;23.42;15.77;;;17.60;95.70;;;;;;5074704;28;20029;-92
2022/01/30 13:18:22;;;;;;;26.13;17.10;;;17.90;94.50;;;;;;5077014;28;20036;-95
2022/01/30 13:20:58;;;;;;;30.70;15.68;;;17.70;94.80;;;;;;5095824;28;20067;-94
2022/01/30 13:23:55;;;;;;;21.58;15.55;;;17.80;94.30;;;;;;5084458;28;20217;-96
2022/01/30 13:27:20;;;;;;;31.23;16.30;;;18.20;94.20;;;;;;5074658;28;20123;-93
2022/01/30 13:30:32;;;;;;;24.70;14.20;;;17.40;94.80;;;;;;5088550;28;20035;-96
2022/01/30 13:33:26;;;;;;;18.73;12.40;;;17.20;97.50;;;;;;5059449;28;20515;-94
2022/01/30 13:36:30;;;;;;;26.15;13.50;;;17.30;97.30;;;;;;5079140;28;20108;-96
2022/01/30 13:38:56;;;;;;;21.45;13.48;;;16.80;99.30;;;;;;5076725;28;20020;-91
2022/01/30 13:42:02;;;;;;;22.40;13.27;;;17.10;99.70;;;;;;5075950;28;20032;-92
2022/01/30 13:44:52;;;;;;;22.13;13.02;;;16.70;99.90;;;;;;5085991;28;20032;-90
2022/01/30 13:47:23;;;;;;;21.42;12.90;;;16.80;99.90;;;;;;5083541;28;20090;-93
2022/01/30 13:49:50;;;;;;;29.00;13.73;;;16.90;99.90;;;;;;5049103;28;20033;-90
2022/01/30 13:52:18;;;;;;;30.08;13.10;;;17.10;99.90;;;;;;5074518;28;20486;-93
2022/01/30 13:54:58;;;;;;;21.67;14.40;;;17.80;99.60;;;;;;5057910;28;20032;-89
2022/01/30 13:57:37;;;;;;;22.00;13.60;;;17.80;99.40;;;;;;5072321;28;20040;-92
2022/01/30 14:00:19;;;;;;;20.80;13.60;;;17.70;99.40;;;;;;5073433;28;20508;-90
2022/01/30 14:03:30;;;;;;;25.70;14.50;;;18.40;98.20;;;;;;5070331;28;20028;-92
2022/01/30 14:06:00;;;;;;;19.52;11.40;;;17.80;98.20;;;;;;5062610;28;20654;-91
2022/01/30 14:09:01;;;;;;;16.83;11.45;;;17.30;98.50;;;;;;5077612;28;20012;-92
2022/01/30 14:11:51;;;;;;;24.48;12.63;;;17.00;98.80;;;;;;5071377;28;20035;-96
2022/01/30 14:14:21;;;;;;;18.98;12.10;;;16.40;99.90;;;;;;5078200;28;20020;-93
2022/01/30 14:16:51;;;;;;;19.33;12.65;;;17.20;99.00;;;;;;5060528;28;20020;-94
2022/01/30 14:19:51;;;;;;;26.73;13.20;;;17.10;99.40;;;;;;5068751;28;20032;-89
2022/01/30 14:22:34;;;;;;;22.63;11.75;;;17.00;99.30;;;;;;5076316;28;20031;-87
2022/01/30 14:25:06;;;;;;;19.50;12.05;;;17.30;98.60;;;;;;5062223;28;20051;-88
2022/01/30 14:27:47;;;;;;;26.67;11.98;;;18.30;97.10;;;;;;5067349;28;20024;-89
2022/01/30 14:33:08;;;;;;;23.33;13.38;;;18.10;95.70;;;;;;5076927;28;20037;-88
2022/01/30 14:35:37;;;;;;;24.08;14.48;;;17.60;96.50;;;;;;5069045;28;20063;-87
2022/01/30 14:38:08;;;;;;;22.48;13.50;;;16.10;98.90;;;;;;5064671;28;20067;-90
2022/01/30 14:40:37;;;;;;;24.07;14.80;;;14.60;99.90;;;;;;5082783;28;20028;-88
2022/01/30 14:46:15;;;;;;;21.48;15.63;;;13.20;99.90;;;;;;5066502;28;20086;-86
2022/01/30 14:48:41;;;;;;;32.65;17.33;;;13.90;99.90;;;;;;5079708;28;20028;-82
2022/01/30 14:51:33;;;;;;;22.80;15.77;;;14.20;99.90;;;;;;5095310;28;20031;-84
2022/01/30 14:54:14;;;;;;;26.25;15.43;;;13.90;99.90;;;;;;5069337;27;20063;-91
2022/01/30 14:56:52;;;;;;;26.95;15.32;;;13.40;99.90;;;;;;5084764;28;20077;-86
2022/01/30 14:59:24;;;;;;;29.00;15.38;;;12.70;99.90;;;;;;5092574;28;20497;-85
2022/01/30 15:01:50;;;;;;;24.20;15.20;;;12.10;99.90;;;;;;5089502;28;20032;-83
2022/01/30 15:04:19;;;;;;;31.83;17.55;;;11.60;99.90;;;;;;5097233;28;20542;-83
2022/01/30 15:06:59;;;;;;;27.85;16.67;;;11.40;99.90;;;;;;5076927;28;20047;-84
2022/01/30 15:09:37;;;;;;;27.55;14.63;;;11.40;99.90;;;;;;5094892;28;20015;-88
2022/01/30 15:12:14;;;;;;;24.60;14.57;;;11.70;99.90;;;;;;5076397;28;20032;-86
2022/01/30 15:14:50;;;;;;;25.75;15.77;;;11.80;99.90;;;;;;5072792;28;20055;-89
2022/01/30 15:17:20;;;;;;;26.27;16.05;;;11.80;99.90;;;;;;5079859;28;20051;-88
2022/01/30 15:19:49;;;;;;;31.55;16.08;;;11.70;99.90;;;;;;5067203;28;20031;-87
2022/01/30 15:22:19;;;;;;;25.58;15.48;;;11.50;99.90;;;;;;5066536;28;20470;-86
2022/01/30 15:24:51;;;;;;;29.92;16.90;;;11.60;99.90;;;;;;5093780;28;20548;-91
2022/01/30 15:27:17;;;;;;;;;;;11.40;99.90;;;;;;5065434;28;20051;-91
2022/01/30 15:30:05;;;;;;;31.20;17.75;;;11.30;99.90;;;;;;5080208;28;19915;-89
2022/01/30 15:32:42;;;;;;;27.52;17.17;;;11.40;99.90;;;;;;5077898;28;20035;-89
2022/01/30 15:35:21;;;;;;;29.92;17.42;;;11.20;99.90;;;;;;5073991;28;20394;-91
2022/01/30 15:37:56;;;;;;;31.40;18.92;;;11.00;99.90;;;;;;5074703;28;20082;-90
2022/01/30 15:40:27;;;;;;;30.05;18.08;;;10.80;99.90;;;;;;5076058;28;20029;-92
2022/01/30 15:42:56;;;;;;;35.47;18.50;;;10.40;99.90;;;;;;5063869;28;20075;-92
2022/01/30 15:50:52;;;;;;;29.67;17.88;;;9.90;99.90;;;;;;5073174;28;20461;-90
2022/01/30 15:56:48;;;;;;;36.28;20.02;;;9.60;99.90;;;;;;5018712;28;20087;-90
2022/01/30 15:59:20;;;;;;;35.97;20.75;;;9.30;99.90;;;;;;5066290;28;20078;-88
2022/01/30 16:02:13;;;;;;;;;;;;;;;;;;;;;
2022/01/30 16:04:52;;;;;;;39.35;22.92;;;8.90;99.90;;;;;;5059464;28;20039;-88
2022/01/30 16:07:25;;;;;;;35.70;21.67;;;8.70;99.90;;;;;;5063168;28;20025;-89
2022/01/30 16:10:21;;;;;;;36.72;23.15;;;8.60;99.90;;;;;;5064176;28;20040;-88
2022/01/30 16:15:36;;;;;;;34.63;22.15;;;8.50;99.90;;;;;;5066397;28;20483;-89
2022/01/30 16:15:55;;;;;;;45.85;27.90;;;8.40;99.90;;;;;;5066443;28;20472;-88
2022/01/30 16:18:30;;;;;;;40.92;23.98;;;8.30;99.90;;;;;;5069767;28;20250;-89
2022/01/30 16:20:56;;;;;;;37.25;23.50;;;8.30;99.90;;;;;;5071497;28;20021;-89
2022/01/30 16:23:22;;;;;;;59.78;41.40;;;8.20;99.90;;;;;;5069390;28;20031;-87
2022/01/30 16:26:02;;;;;;;79.80;41.92;;;8.10;99.90;;;;;;5071792;28;20115;-90
2022/01/30 16:28:34;;;;;;;63.17;31.55;;;8.00;99.90;;;;;;5074378;28;20037;-92
2022/01/30 16:31:03;;;;;;;49.90;30.33;;;8.00;99.90;;;;;;5068242;28;20021;-89
2022/01/30 16:33:32;;;;;;;75.88;43.78;;;8.00;99.90;;;;;;5068001;28;20325;-92
2022/01/30 16:36:01;;;;;;;54.00;30.60;;;7.90;99.90;;;;;;5047032;28;20112;-91
2022/01/30 16:38:29;;;;;;;57.60;33.90;;;7.90;99.90;;;;;;5049889;28;20039;-92
2022/01/30 16:40:57;;;;;;;64.05;39.53;;;7.80;99.90;;;;;;5055551;28;20040;-92
2022/01/30 16:43:27;;;;;;;84.20;48.28;;;7.70;99.90;;;;;;5058601;28;20055;-91
2022/01/30 16:46:51;;;;;;;91.05;66.15;;;7.60;99.90;;;;;;5056493;28;20108;-91
2022/01/30 16:49:02;;;;;;;54.80;35.47;;;7.50;99.90;;;;;;5081451;28;20029;-90
2022/01/30 16:51:32;;;;;;;57.10;33.88;;;7.40;99.90;;;;;;5062410;28;20055;-91
2022/01/30 16:54:00;;;;;;;59.97;35.88;;;7.30;99.90;;;;;;5058142;28;20040;-91
2022/01/30 16:56:33;;;;;;;51.75;31.95;;;7.20;99.90;;;;;;5057016;28;20004;-91
2022/01/30 16:58:59;;;;;;;;;;;7.20;99.90;;;;;;5064066;28;20034;-90
2022/01/30 17:01:26;;;;;;;51.95;31.13;;;7.10;99.90;;;;;;5039714;28;19940;-90
2022/01/30 17:03:52;;;;;;;54.67;31.75;;;7.10;99.90;;;;;;5058311;28;20031;-90
2022/01/30 17:06:18;;;;;;;53.60;37.85;;;7.10;99.90;;;;;;5062803;28;20079;-91
2022/01/30 17:08:55;;;;;;;52.63;33.70;;;7.00;99.90;;;;;;5081582;28;20033;-91
2022/01/30 17:11:24;;;;;;;52.63;33.40;;;7.00;99.90;;;;;;5058686;28;20592;-91
2022/01/30 17:13:55;;;;;;;59.05;34.63;;;6.90;99.90;;;;;;5043957;28;20098;-92
2022/01/30 17:16:39;;;;;;;57.17;33.33;;;6.80;99.90;;;;;;5072125;28;20037;-91
2022/01/30 17:19:27;;;;;;;47.80;29.52;;;6.70;99.90;;;;;;5059435;28;20037;-93
2022/01/30 17:22:00;;;;;;;46.50;27.52;;;6.70;99.90;;;;;;5056858;28;20476;-90
2022/01/30 17:24:26;;;;;;;43.03;29.27;;;6.60;99.90;;;;;;5048586;28;20064;-92
2022/01/30 17:26:55;;;;;;;48.65;29.33;;;6.60;99.90;;;;;;5061157;28;20057;-90
2022/01/30 17:29:27;;;;;;;48.47;30.50;;;6.50;99.90;;;;;;5062778;28;20024;-92
2022/01/30 17:32:15;;;;;;;46.13;29.50;;;6.50;99.90;;;;;;5053288;28;20062;-92
2022/01/30 17:34:47;;;;;;;44.22;28.05;;;6.50;99.90;;;;;;5066129;28;20187;-91
2022/01/30 17:37:22;;;;;;;46.45;27.77;;;6.50;99.90;;;;;;5078134;28;20047;-91
2022/01/30 17:40:09;;;;;;;42.83;26.52;;;6.40;99.90;;;;;;5073932;28;20039;-92
2022/01/30 17:42:42;;;;;;;49.33;26.27;;;6.30;99.90;;;;;;5073884;28;20204;-91
2022/01/30 17:45:13;;;;;;;41.53;26.98;;;6.20;99.90;;;;;;5072347;28;20025;-87
2022/01/30 17:47:39;;;;;;;46.80;28.27;;;6.00;99.90;;;;;;5089612;28;20081;-91
2022/01/30 17:50:10;;;;;;;46.00;27.45;;;5.90;99.90;;;;;;5077954;28;20081;-90
2022/01/30 17:52:40;;;;;;;46.97;27.50;;;5.80;99.90;;;;;;5083052;28;20123;-89
2022/01/30 17:55:08;;;;;;;46.55;28.27;;;5.80;99.90;;;;;;5089104;28;20025;-91
2022/01/30 17:57:38;;;;;;;47.03;28.10;;;5.70;99.90;;;;;;5056697;28;20033;-91
2022/01/30 18:00:17;;;;;;;47.38;29.15;;;5.60;99.90;;;;;;5072002;28;20487;-90
2022/01/30 18:02:44;;;;;;;51.28;28.23;;;5.60;99.90;;;;;;5074554;28;20027;-91
2022/01/30 18:05:17;;;;;;;45.53;29.95;;;5.50;99.90;;;;;;5084779;28;20024;-91
2022/01/30 18:07:55;;;;;;;46.58;28.30;;;5.50;99.90;;;;;;5077435;28;20024;-91
2022/01/30 18:10:28;;;;;;;43.75;27.90;;;5.50;99.90;;;;;;5072760;28;20044;-91
2022/01/30 18:13:02;;;;;;;44.60;29.40;;;5.40;99.90;;;;;;5073297;28;20533;-91
2022/01/30 18:15:55;;;;;;;44.85;28.88;;;5.40;99.90;;;;;;5091459;28;20047;-92
2022/01/30 18:18:39;;;;;;;43.45;28.52;;;5.30;99.90;;;;;;5090660;28;20525;-91
2022/01/30 18:21:25;;;;;;;46.28;29.35;;;5.30;99.90;;;;;;5093357;28;20024;-92
2022/01/30 18:24:02;;;;;;;46.50;28.23;;;5.20;99.90;;;;;;5083425;28;20040;-90
2022/01/30 18:26:31;;;;;;;49.50;29.45;;;5.20;99.90;;;;;;5081480;28;20390;-91
2022/01/30 18:29:02;;;;;;;50.95;29.65;;;5.20;99.90;;;;;;5064281;28;20056;-92
2022/01/30 18:31:34;;;;;;;46.63;30.27;;;5.10;99.90;;;;;;5073628;28;20090;-90
2022/01/30 18:34:09;;;;;;;53.72;32.42;;;5.10;99.90;;;;;;5081839;28;20503;-92
2022/01/30 18:36:47;;;;;;;52.08;32.55;;;5.00;99.90;;;;;;5064424;28;20060;-92
2022/01/30 18:39:29;;;;;;;59.67;37.65;;;5.00;99.90;;;;;;5098086;28;20021;-92
2022/01/30 18:41:59;;;;;;;48.85;30.77;;;5.00;99.90;;;;;;5098256;28;20481;-91
2022/01/30 18:44:30;;;;;;;48.05;28.10;;;5.00;99.90;;;;;;5106465;28;20624;-92
2022/01/30 18:47:05;;;;;;;43.38;26.05;;;5.00;99.90;;;;;;5079109;28;20025;-92
2022/01/30 18:49:31;;;;;;;46.80;26.52;;;5.00;99.90;;;;;;5095810;28;20150;-89
2022/01/30 18:51:57;;;;;;;44.28;26.90;;;5.10;99.90;;;;;;5099063;28;20052;-91
2022/01/30 18:54:23;;;;;;;43.22;27.15;;;5.10;99.90;;;;;;5064250;28;20394;-91